sensor_id;sensor_type;location;lat;lon;timestamp;pressure;altitude;pressure_sealevel;temperature
76713;BMP280;65640;43.154;25.658;2023-11-25T00:00:46;98724.28;;;9.94
76713;BMP280;65640;43.154;25.658;2023-11-25T00:03:11;98714.44;;;9.91
76713;BMP280;65640;43.154;25.658;2023-11-25T00:05:37;98696.16;;;9.91
76713;BMP280;65640;43.154;25.658;2023-11-25T00:08:03;98694.47;;;9.87
76713;BMP280;65640;43.154;25.658;2023-11-25T00:10:28;98704.31;;;9.90
76713;BMP280;65640;43.154;25.658;2023-11-25T00:12:53;98705.53;;;9.92
76713;BMP280;65640;43.154;25.658;2023-11-25T00:15:18;98698.31;;;9.89
76713;BMP280;65640;43.154;25.658;2023-11-25T00:17:44;98695.81;;;9.93
76713;BMP280;65640;43.154;25.658;2023-11-25T00:20:10;98686.31;;;9.97
76713;BMP280;65640;43.154;25.658;2023-11-25T00:22:35;98690.59;;;9.93
76713;BMP280;65640;43.154;25.658;2023-11-25T00:25:00;98686.78;;;9.90
76713;BMP280;65640;43.154;25.658;2023-11-25T00:27:26;98696.00;;;9.88
76713;BMP280;65640;43.154;25.658;2023-11-25T00:29:51;98707.34;;;9.83
76713;BMP280;65640;43.154;25.658;2023-11-25T00:32:16;98701.69;;;9.81
76713;BMP280;65640;43.154;25.658;2023-11-25T00:34:41;98693.22;;;9.84
76713;BMP280;65640;43.154;25.658;2023-11-25T00:37:08;98699.06;;;9.81
76713;BMP280;65640;43.154;25.658;2023-11-25T00:39:33;98700.13;;;9.80
76713;BMP280;65640;43.154;25.658;2023-11-25T00:41:59;98702.28;;;9.78
76713;BMP280;65640;43.154;25.658;2023-11-25T00:44:24;98696.13;;;9.74
76713;BMP280;65640;43.154;25.658;2023-11-25T00:46:49;98693.06;;;9.81
76713;BMP280;65640;43.154;25.658;2023-11-25T00:49:15;98676.75;;;9.75
76713;BMP280;65640;43.154;25.658;2023-11-25T00:51:40;98668.00;;;9.71
76713;BMP280;65640;43.154;25.658;2023-11-25T00:54:06;98666.47;;;9.70
76713;BMP280;65640;43.154;25.658;2023-11-25T00:56:31;98671.88;;;9.82
76713;BMP280;65640;43.154;25.658;2023-11-25T00:58:57;98653.59;;;9.82
76713;BMP280;65640;43.154;25.658;2023-11-25T01:01:22;98677.06;;;9.74
76713;BMP280;65640;43.154;25.658;2023-11-25T01:03:47;98660.94;;;9.72
76713;BMP280;65640;43.154;25.658;2023-11-25T01:06:13;98652.16;;;9.76
76713;BMP280;65640;43.154;25.658;2023-11-25T01:08:38;98642.78;;;9.75
76713;BMP280;65640;43.154;25.658;2023-11-25T01:11:03;98641.28;;;9.74
76713;BMP280;65640;43.154;25.658;2023-11-25T01:13:30;98634.19;;;9.83
76713;BMP280;65640;43.154;25.658;2023-11-25T01:15:55;98630.19;;;9.77
76713;BMP280;65640;43.154;25.658;2023-11-25T01:18:20;98607.91;;;9.71
76713;BMP280;65640;43.154;25.658;2023-11-25T01:20:46;98612.69;;;9.78
76713;BMP280;65640;43.154;25.658;2023-11-25T01:23:11;98602.25;;;9.86
76713;BMP280;65640;43.154;25.658;2023-11-25T01:25:37;98596.41;;;9.81
76713;BMP280;65640;43.154;25.658;2023-11-25T01:28:02;98599.91;;;9.76
76713;BMP280;65640;43.154;25.658;2023-11-25T01:30:29;98595.63;;;9.80
76713;BMP280;65640;43.154;25.658;2023-11-25T01:32:55;98575.50;;;9.81
76713;BMP280;65640;43.154;25.658;2023-11-25T01:35:20;98580.25;;;9.87
76713;BMP280;65640;43.154;25.658;2023-11-25T01:37:46;98585.19;;;9.89
76713;BMP280;65640;43.154;25.658;2023-11-25T01:40:11;98584.25;;;9.76
76713;BMP280;65640;43.154;25.658;2023-11-25T01:42:37;98592.25;;;9.71
76713;BMP280;65640;43.154;25.658;2023-11-25T01:45:02;98594.25;;;9.83
76713;BMP280;65640;43.154;25.658;2023-11-25T01:47:28;98595.34;;;9.90
76713;BMP280;65640;43.154;25.658;2023-11-25T01:49:54;98596.53;;;9.84
76713;BMP280;65640;43.154;25.658;2023-11-25T01:52:19;98601.78;;;9.84
76713;BMP280;65640;43.154;25.658;2023-11-25T01:54:45;98613.94;;;9.89
76713;BMP280;65640;43.154;25.658;2023-11-25T01:57:10;98596.22;;;9.77
76713;BMP280;65640;43.154;25.658;2023-11-25T01:59:36;98590.72;;;9.70
76713;BMP280;65640;43.154;25.658;2023-11-25T02:02:01;98587.03;;;9.62
76713;BMP280;65640;43.154;25.658;2023-11-25T02:04:28;98578.44;;;9.62
76713;BMP280;65640;43.154;25.658;2023-11-25T02:06:53;98571.50;;;9.57
76713;BMP280;65640;43.154;25.658;2023-11-25T02:09:18;98557.06;;;9.51
76713;BMP280;65640;43.154;25.658;2023-11-25T02:14:19;98552.44;;;9.48
76713;BMP280;65640;43.154;25.658;2023-11-25T02:16:45;98540.31;;;9.44
76713;BMP280;65640;43.154;25.658;2023-11-25T02:19:10;98532.03;;;9.42
76713;BMP280;65640;43.154;25.658;2023-11-25T02:21:40;98525.88;;;9.38
76713;BMP280;65640;43.154;25.658;2023-11-25T02:24:05;98514.34;;;9.39
76713;BMP280;65640;43.154;25.658;2023-11-25T02:26:32;98510.22;;;9.38
76713;BMP280;65640;43.154;25.658;2023-11-25T02:28:57;98501.44;;;9.34
76713;BMP280;65640;43.154;25.658;2023-11-25T02:31:22;98500.84;;;9.37
76713;BMP280;65640;43.154;25.658;2023-11-25T02:33:47;98495.31;;;9.38
76713;BMP280;65640;43.154;25.658;2023-11-25T02:36:13;98497.78;;;9.35
76713;BMP280;65640;43.154;25.658;2023-11-25T02:38:39;98497.78;;;9.35
76713;BMP280;65640;43.154;25.658;2023-11-25T02:41:05;98497.78;;;9.35
76713;BMP280;65640;43.154;25.658;2023-11-25T02:43:30;98502.84;;;9.40
76713;BMP280;65640;43.154;25.658;2023-11-25T02:45:56;98493.16;;;9.40
76713;BMP280;65640;43.154;25.658;2023-11-25T02:48:21;98485.63;;;9.39
76713;BMP280;65640;43.154;25.658;2023-11-25T02:50:46;98474.59;;;9.42
76713;BMP280;65640;43.154;25.658;2023-11-25T02:53:12;98462.59;;;9.41
76713;BMP280;65640;43.154;25.658;2023-11-25T02:55:38;98458.63;;;9.35
76713;BMP280;65640;43.154;25.658;2023-11-25T02:58:04;98459.22;;;9.32
76713;BMP280;65640;43.154;25.658;2023-11-25T03:00:30;98469.53;;;9.28
76713;BMP280;65640;43.154;25.658;2023-11-25T03:02:59;98465.38;;;9.27
76713;BMP280;65640;43.154;25.658;2023-11-25T03:05:37;98468.13;;;9.31
76713;BMP280;65640;43.154;25.658;2023-11-25T03:08:05;98475.66;;;9.32
76713;BMP280;65640;43.154;25.658;2023-11-25T03:10:30;98468.59;;;9.33
76713;BMP280;65640;43.154;25.658;2023-11-25T03:12:56;98466.28;;;9.22
76713;BMP280;65640;43.154;25.658;2023-11-25T03:15:21;98456.47;;;9.28
76713;BMP280;65640;43.154;25.658;2023-11-25T03:17:46;98454.63;;;9.29
76713;BMP280;65640;43.154;25.658;2023-11-25T03:20:12;98454.94;;;9.36
76713;BMP280;65640;43.154;25.658;2023-11-25T03:22:37;98452.78;;;9.38
76713;BMP280;65640;43.154;25.658;2023-11-25T03:25:02;98448.94;;;9.44
76713;BMP280;65640;43.154;25.658;2023-11-25T03:27:30;98437.44;;;9.45
76713;BMP280;65640;43.154;25.658;2023-11-25T03:29:56;98428.19;;;9.47
76713;BMP280;65640;43.154;25.658;2023-11-25T03:32:21;98432.47;;;9.52
76713;BMP280;65640;43.154;25.658;2023-11-25T03:34:50;98432.00;;;9.50
76713;BMP280;65640;43.154;25.658;2023-11-25T03:37:15;98437.44;;;9.45
76713;BMP280;65640;43.154;25.658;2023-11-25T03:39:41;98435.88;;;9.44
76713;BMP280;65640;43.154;25.658;2023-11-25T03:42:06;98437.22;;;9.50
76713;BMP280;65640;43.154;25.658;2023-11-25T03:44:31;98433.41;;;9.56
76713;BMP280;65640;43.154;25.658;2023-11-25T03:46:56;98428.78;;;9.53
76713;BMP280;65640;43.154;25.658;2023-11-25T03:49:22;98426.78;;;9.50
76713;BMP280;65640;43.154;25.658;2023-11-25T03:51:47;98410.66;;;9.48
76713;BMP280;65640;43.154;25.658;2023-11-25T03:54:13;98412.19;;;9.57
76713;BMP280;65640;43.154;25.658;2023-11-25T03:56:38;98402.50;;;9.49
76713;BMP280;65640;43.154;25.658;2023-11-25T03:59:03;98404.69;;;9.56
76713;BMP280;65640;43.154;25.658;2023-11-25T04:01:28;98404.34;;;9.66
76713;BMP280;65640;43.154;25.658;2023-11-25T04:03:53;98402.97;;;9.69
76713;BMP280;65640;43.154;25.658;2023-11-25T04:06:19;98407.13;;;9.61
76713;BMP280;65640;43.154;25.658;2023-11-25T04:08:44;98401.44;;;9.59
76713;BMP280;65640;43.154;25.658;2023-11-25T04:11:09;98404.97;;;9.63
76713;BMP280;65640;43.154;25.658;2023-11-25T04:13:35;98406.19;;;9.57
76713;BMP280;65640;43.154;25.658;2023-11-25T04:16:00;98398.34;;;9.57
76713;BMP280;65640;43.154;25.658;2023-11-25T04:18:26;98394.69;;;9.58
76713;BMP280;65640;43.154;25.658;2023-11-25T04:20:51;98396.50;;;9.66
76713;BMP280;65640;43.154;25.658;2023-11-25T04:23:16;98401.28;;;9.64
76713;BMP280;65640;43.154;25.658;2023-11-25T04:25:43;98386.69;;;9.63
76713;BMP280;65640;43.154;25.658;2023-11-25T04:28:11;98381.78;;;9.61
76713;BMP280;65640;43.154;25.658;2023-11-25T04:30:40;98384.22;;;9.66
76713;BMP280;65640;43.154;25.658;2023-11-25T04:33:08;98382.38;;;9.67
76713;BMP280;65640;43.154;25.658;2023-11-25T04:35:37;98385.16;;;9.62
76713;BMP280;65640;43.154;25.658;2023-11-25T04:38:02;98392.53;;;9.60
76713;BMP280;65640;43.154;25.658;2023-11-25T04:40:28;98397.19;;;9.46
76713;BMP280;65640;43.154;25.658;2023-11-25T04:42:53;98395.50;;;9.33
76713;BMP280;65640;43.154;25.658;2023-11-25T04:45:18;98400.91;;;9.19
76713;BMP280;65640;43.154;25.658;2023-11-25T04:47:46;98388.00;;;9.14
76713;BMP280;65640;43.154;25.658;2023-11-25T04:50:12;98388.16;;;9.09
76713;BMP280;65640;43.154;25.658;2023-11-25T04:52:38;98391.22;;;9.02
76713;BMP280;65640;43.154;25.658;2023-11-25T04:55:04;98386.66;;;8.99
76713;BMP280;65640;43.154;25.658;2023-11-25T04:57:29;98400.13;;;8.93
76713;BMP280;65640;43.154;25.658;2023-11-25T04:59:54;98402.59;;;8.89
76713;BMP280;65640;43.154;25.658;2023-11-25T05:02:20;98407.16;;;8.83
76713;BMP280;65640;43.154;25.658;2023-11-25T05:04:45;98403.78;;;8.83
76713;BMP280;65640;43.154;25.658;2023-11-25T05:07:10;98403.97;;;8.78
76713;BMP280;65640;43.154;25.658;2023-11-25T05:09:36;98401.97;;;8.75
76713;BMP280;65640;43.154;25.658;2023-11-25T05:12:03;98403.94;;;8.69
76713;BMP280;65640;43.154;25.658;2023-11-25T05:14:28;98401.31;;;8.61
76713;BMP280;65640;43.154;25.658;2023-11-25T05:16:54;98393.34;;;8.57
76713;BMP280;65640;43.154;25.658;2023-11-25T05:19:21;98396.84;;;8.53
76713;BMP280;65640;43.154;25.658;2023-11-25T05:21:47;98388.88;;;8.49
76713;BMP280;65640;43.154;25.658;2023-11-25T05:24:12;98402.34;;;8.42
76713;BMP280;65640;43.154;25.658;2023-11-25T05:26:37;98403.09;;;8.43
76713;BMP280;65640;43.154;25.658;2023-11-25T05:29:02;98402.97;;;8.39
76713;BMP280;65640;43.154;25.658;2023-11-25T05:31:28;98405.88;;;8.38
76713;BMP280;65640;43.154;25.658;2023-11-25T05:33:53;98396.81;;;8.35
76713;BMP280;65640;43.154;25.658;2023-11-25T05:36:18;98387.91;;;8.36
76713;BMP280;65640;43.154;25.658;2023-11-25T05:38:43;98387.91;;;8.36
76713;BMP280;65640;43.154;25.658;2023-11-25T05:41:09;98389.94;;;8.31
76713;BMP280;65640;43.154;25.658;2023-11-25T05:43:36;98389.75;;;8.27
76713;BMP280;65640;43.154;25.658;2023-11-25T05:46:01;98393.59;;;8.30
76713;BMP280;65640;43.154;25.658;2023-11-25T05:48:26;98392.81;;;8.29
76713;BMP280;65640;43.154;25.658;2023-11-25T05:50:52;98379.31;;;8.27
76713;BMP280;65640;43.154;25.658;2023-11-25T05:53:17;98386.19;;;8.23
76713;BMP280;65640;43.154;25.658;2023-11-25T05:55:43;98384.66;;;8.22
76713;BMP280;65640;43.154;25.658;2023-11-25T05:58:08;98378.84;;;8.25
76713;BMP280;65640;43.154;25.658;2023-11-25T06:00:33;98379.91;;;8.24
76713;BMP280;65640;43.154;25.658;2023-11-25T06:02:58;98390.81;;;8.26
76713;BMP280;65640;43.154;25.658;2023-11-25T06:05:24;98392.66;;;8.26
76713;BMP280;65640;43.154;25.658;2023-11-25T06:07:49;98393.25;;;8.23
76713;BMP280;65640;43.154;25.658;2023-11-25T06:10:15;98399.22;;;8.23
76713;BMP280;65640;43.154;25.658;2023-11-25T06:12:40;98404.13;;;8.25
76713;BMP280;65640;43.154;25.658;2023-11-25T06:15:06;98407.22;;;8.27
76713;BMP280;65640;43.154;25.658;2023-11-25T06:17:32;98394.00;;;8.23
76713;BMP280;65640;43.154;25.658;2023-11-25T06:19:57;98399.06;;;8.20
76713;BMP280;65640;43.154;25.658;2023-11-25T06:22:22;98393.09;;;8.19
76713;BMP280;65640;43.154;25.658;2023-11-25T06:24:48;98381.91;;;8.19
76713;BMP280;65640;43.154;25.658;2023-11-25T06:27:13;98380.06;;;8.19
76713;BMP280;65640;43.154;25.658;2023-11-25T06:29:38;98375.63;;;8.20
76713;BMP280;65640;43.154;25.658;2023-11-25T06:32:07;98386.34;;;8.18
76713;BMP280;65640;43.154;25.658;2023-11-25T06:34:32;98391.06;;;8.16
76713;BMP280;65640;43.154;25.658;2023-11-25T06:36:58;98393.50;;;8.13
76713;BMP280;65640;43.154;25.658;2023-11-25T06:39:23;98409.47;;;8.11
76713;BMP280;65640;43.154;25.658;2023-11-25T06:41:51;98425.69;;;8.08
76713;BMP280;65640;43.154;25.658;2023-11-25T06:44:16;98431.97;;;8.07
76713;BMP280;65640;43.154;25.658;2023-11-25T06:46:42;98426.75;;;8.07
76713;BMP280;65640;43.154;25.658;2023-11-25T06:49:07;98418.47;;;8.05
76713;BMP280;65640;43.154;25.658;2023-11-25T06:51:32;98414.03;;;8.05
76713;BMP280;65640;43.154;25.658;2023-11-25T06:53:58;98420.50;;;8.08
76713;BMP280;65640;43.154;25.658;2023-11-25T06:56:23;98419.84;;;8.02
76713;BMP280;65640;43.154;25.658;2023-11-25T06:58:48;98408.81;;;8.05
76713;BMP280;65640;43.154;25.658;2023-11-25T07:01:16;98420.31;;;8.04
76713;BMP280;65640;43.154;25.658;2023-11-25T07:03:43;98417.81;;;7.99
76713;BMP280;65640;43.154;25.658;2023-11-25T07:06:09;98424.69;;;7.95
76713;BMP280;65640;43.154;25.658;2023-11-25T07:08:34;98428.38;;;7.94
76713;BMP280;65640;43.154;25.658;2023-11-25T07:11:00;98427.00;;;7.97
76713;BMP280;65640;43.154;25.658;2023-11-25T07:13:30;98421.31;;;7.95
76713;BMP280;65640;43.154;25.658;2023-11-25T07:15:55;98425.00;;;7.94
76713;BMP280;65640;43.154;25.658;2023-11-25T07:18:21;98422.97;;;7.91
76713;BMP280;65640;43.154;25.658;2023-11-25T07:20:48;98435.69;;;7.92
76713;BMP280;65640;43.154;25.658;2023-11-25T07:23:13;98429.44;;;7.93
76713;BMP280;65640;43.154;25.658;2023-11-25T07:25:39;98435.41;;;7.94
76713;BMP280;65640;43.154;25.658;2023-11-25T07:28:07;98437.38;;;7.88
76713;BMP280;65640;43.154;25.658;2023-11-25T07:30:32;98432.50;;;7.87
76713;BMP280;65640;43.154;25.658;2023-11-25T07:32:58;98436.16;;;7.86
76713;BMP280;65640;43.154;25.658;2023-11-25T07:35:23;98432.50;;;7.87
76713;BMP280;65640;43.154;25.658;2023-11-25T07:37:48;98432.50;;;7.87
76713;BMP280;65640;43.154;25.658;2023-11-25T07:40:13;98436.19;;;7.94
76713;BMP280;65640;43.154;25.658;2023-11-25T07:42:49;98434.34;;;7.95
76713;BMP280;65640;43.154;25.658;2023-11-25T07:45:14;98443.22;;;7.94
76713;BMP280;65640;43.154;25.658;2023-11-25T07:47:41;98439.09;;;7.93
76713;BMP280;65640;43.154;25.658;2023-11-25T07:50:09;98441.22;;;7.91
76713;BMP280;65640;43.154;25.658;2023-11-25T07:52:34;98438.16;;;7.89
76713;BMP280;65640;43.154;25.658;2023-11-25T07:54:59;98444.44;;;7.88
76713;BMP280;65640;43.154;25.658;2023-11-25T07:57:25;98439.25;;;7.88
76713;BMP280;65640;43.154;25.658;2023-11-25T07:59:50;98436.00;;;7.91
76713;BMP280;65640;43.154;25.658;2023-11-25T08:02:15;98439.84;;;7.93
76713;BMP280;65640;43.154;25.658;2023-11-25T08:04:40;98446.00;;;7.97
76713;BMP280;65640;43.154;25.658;2023-11-25T08:07:06;98447.38;;;7.95
76713;BMP280;65640;43.154;25.658;2023-11-25T08:09:31;98452.09;;;7.93
76713;BMP280;65640;43.154;25.658;2023-11-25T08:11:58;98448.16;;;7.95
76713;BMP280;65640;43.154;25.658;2023-11-25T08:14:23;98447.09;;;7.96
76713;BMP280;65640;43.154;25.658;2023-11-25T08:16:48;98446.78;;;7.98
76713;BMP280;65640;43.154;25.658;2023-11-25T08:19:14;98448.78;;;8.01
76713;BMP280;65640;43.154;25.658;2023-11-25T08:21:41;98449.25;;;8.03
76713;BMP280;65640;43.154;25.658;2023-11-25T08:24:06;98454.66;;;8.06
76713;BMP280;65640;43.154;25.658;2023-11-25T08:26:31;98459.38;;;8.04
76713;BMP280;65640;43.154;25.658;2023-11-25T08:28:57;98457.72;;;8.09
76713;BMP280;65640;43.154;25.658;2023-11-25T08:31:23;98456.00;;;8.04
76713;BMP280;65640;43.154;25.658;2023-11-25T08:33:48;98447.59;;;8.07
76713;BMP280;65640;43.154;25.658;2023-11-25T08:36:14;98438.13;;;8.11
76713;BMP280;65640;43.154;25.658;2023-11-25T08:38:39;98438.44;;;8.18
76713;BMP280;65640;43.154;25.658;2023-11-25T08:41:05;98446.09;;;8.15
76713;BMP280;65640;43.154;25.658;2023-11-25T08:43:32;98447.00;;;8.10
76713;BMP280;65640;43.154;25.658;2023-11-25T08:45:58;98453.75;;;8.11
76713;BMP280;65640;43.154;25.658;2023-11-25T08:48:23;98452.19;;;8.10
76713;BMP280;65640;43.154;25.658;2023-11-25T08:50:48;98454.75;;;8.01
76713;BMP280;65640;43.154;25.658;2023-11-25T08:53:14;98453.22;;;8.00
76713;BMP280;65640;43.154;25.658;2023-11-25T08:55:41;98451.22;;;7.97
76713;BMP280;65640;43.154;25.658;2023-11-25T08:58:06;98466.25;;;8.00
76713;BMP280;65640;43.154;25.658;2023-11-25T09:00:32;98457.31;;;7.93
76713;BMP280;65640;43.154;25.658;2023-11-25T09:02:58;98458.53;;;7.87
76713;BMP280;65640;43.154;25.658;2023-11-25T09:05:23;98456.03;;;7.82
76713;BMP280;65640;43.154;25.658;2023-11-25T09:07:53;98455.06;;;7.78
76713;BMP280;65640;43.154;25.658;2023-11-25T09:10:20;98459.16;;;7.70
76713;BMP280;65640;43.154;25.658;2023-11-25T09:12:46;98454.41;;;7.63
76713;BMP280;65640;43.154;25.658;2023-11-25T09:15:11;98453.09;;;7.52
76713;BMP280;65640;43.154;25.658;2023-11-25T09:17:39;98449.53;;;7.48
76713;BMP280;65640;43.154;25.658;2023-11-25T09:20:05;98455.78;;;7.47
76713;BMP280;65640;43.154;25.658;2023-11-25T09:22:34;98449.84;;;7.33
76713;BMP280;65640;43.154;25.658;2023-11-25T09:25:00;98450.47;;;7.30
76713;BMP280;65640;43.154;25.658;2023-11-25T09:27:25;98459.22;;;7.34
76713;BMP280;65640;43.154;25.658;2023-11-25T09:29:50;98461.63;;;7.31
76713;BMP280;65640;43.154;25.658;2023-11-25T09:32:16;98463.75;;;7.28
76713;BMP280;65640;43.154;25.658;2023-11-25T09:34:42;98456.38;;;7.22
76713;BMP280;65640;43.154;25.658;2023-11-25T09:37:07;98468.44;;;7.18
76713;BMP280;65640;43.154;25.658;2023-11-25T09:39:33;98457.81;;;7.14
76713;BMP280;65640;43.154;25.658;2023-11-25T09:41:58;98451.56;;;7.15
76713;BMP280;65640;43.154;25.658;2023-11-25T09:44:24;98461.88;;;7.07
76713;BMP280;65640;43.154;25.658;2023-11-25T09:46:49;98462.09;;;6.97
76713;BMP280;65640;43.154;25.658;2023-11-25T09:49:15;98454.19;;;6.88
76713;BMP280;65640;43.154;25.658;2023-11-25T09:51:41;98460.19;;;6.88
76713;BMP280;65640;43.154;25.658;2023-11-25T09:54:09;98457.09;;;6.86
76713;BMP280;65640;43.154;25.658;2023-11-25T09:56:39;98465.97;;;6.72
76713;BMP280;65640;43.154;25.658;2023-11-25T09:59:06;98460.09;;;6.66
76713;BMP280;65640;43.154;25.658;2023-11-25T10:01:32;98457.09;;;6.59
76713;BMP280;65640;43.154;25.658;2023-11-25T10:03:57;98457.88;;;6.46
76713;BMP280;65640;43.154;25.658;2023-11-25T10:06:23;98451.78;;;6.37
76713;BMP280;65640;43.154;25.658;2023-11-25T10:08:50;98459.78;;;6.27
76713;BMP280;65640;43.154;25.658;2023-11-25T10:11:15;98454.19;;;6.33
76713;BMP280;65640;43.154;25.658;2023-11-25T10:13:42;98452.28;;;6.39
76713;BMP280;65640;43.154;25.658;2023-11-25T10:16:08;98445.63;;;6.33
76713;BMP280;65640;43.154;25.658;2023-11-25T10:18:37;98446.69;;;6.32
76713;BMP280;65640;43.154;25.658;2023-11-25T10:21:05;98450.53;;;6.21
76713;BMP280;65640;43.154;25.658;2023-11-25T10:23:31;98446.47;;;6.14
76713;BMP280;65640;43.154;25.658;2023-11-25T10:25:57;98443.97;;;6.09
76713;BMP280;65640;43.154;25.658;2023-11-25T10:28:29;98442.44;;;6.08
76713;BMP280;65640;43.154;25.658;2023-11-25T10:30:58;98441.84;;;6.11
76713;BMP280;65640;43.154;25.658;2023-11-25T10:33:25;98436.09;;;6.14
76713;BMP280;65640;43.154;25.658;2023-11-25T10:35:52;98430.78;;;6.20
76713;BMP280;65640;43.154;25.658;2023-11-25T10:38:18;98425.22;;;6.12
76713;BMP280;65640;43.154;25.658;2023-11-25T10:40:47;98427.25;;;6.16
76713;BMP280;65640;43.154;25.658;2023-11-25T10:43:13;98425.97;;;6.13
76713;BMP280;65640;43.154;25.658;2023-11-25T10:45:39;98417.91;;;6.14
76713;BMP280;65640;43.154;25.658;2023-11-25T10:48:04;98425.69;;;6.14
76713;BMP280;65640;43.154;25.658;2023-11-25T10:50:30;98422.63;;;6.12
76713;BMP280;65640;43.154;25.658;2023-11-25T10:52:56;98412.59;;;6.06
76713;BMP280;65640;43.154;25.658;2023-11-25T10:55:25;98418.84;;;6.05
76713;BMP280;65640;43.154;25.658;2023-11-25T10:57:52;98417.03;;;6.05
76713;BMP280;65640;43.154;25.658;2023-11-25T11:00:19;98414.31;;;5.97
76713;BMP280;65640;43.154;25.658;2023-11-25T11:05:10;98424.91;;;6.00
76713;BMP280;65640;43.154;25.658;2023-11-25T11:07:37;98412.00;;;5.95
76713;BMP280;65640;43.154;25.658;2023-11-25T11:10:04;98413.16;;;6.03
76713;BMP280;65640;43.154;25.658;2023-11-25T11:14:58;98413.00;;;5.99
76713;BMP280;65640;43.154;25.658;2023-11-25T11:18:08;98412.88;;;6.04
76713;BMP280;65640;43.154;25.658;2023-11-25T11:20:14;98415.09;;;6.11
76713;BMP280;65640;43.154;25.658;2023-11-25T11:22:41;98402.72;;;6.08
76713;BMP280;65640;43.154;25.658;2023-11-25T11:32:38;98407.69;;;6.04
76713;BMP280;65640;43.154;25.658;2023-11-25T11:35:06;98416.84;;;6.02
76713;BMP280;65640;43.154;25.658;2023-11-25T11:37:36;98415.09;;;5.97
76713;BMP280;65640;43.154;25.658;2023-11-25T11:40:02;98407.66;;;5.91
76713;BMP280;65640;43.154;25.658;2023-11-25T11:42:30;98408.06;;;5.98
76713;BMP280;65640;43.154;25.658;2023-11-25T11:44:59;98400.00;;;5.99
76713;BMP280;65640;43.154;25.658;2023-11-25T11:47:36;98405.47;;;5.98
76713;BMP280;65640;43.154;25.658;2023-11-25T11:50:02;98409.47;;;5.90
76713;BMP280;65640;43.154;25.658;2023-11-25T11:52:33;98406.25;;;5.98
76713;BMP280;65640;43.154;25.658;2023-11-25T11:55:08;98403.38;;;6.00
76713;BMP280;65640;43.154;25.658;2023-11-25T12:00:28;98400.84;;;5.95
76713;BMP280;65640;43.154;25.658;2023-11-25T12:02:55;98397.84;;;5.88
76713;BMP280;65640;43.154;25.658;2023-11-25T12:05:20;98388.16;;;5.93
76713;BMP280;65640;43.154;25.658;2023-11-25T12:07:45;98385.06;;;5.91
76713;BMP280;65640;43.154;25.658;2023-11-25T12:10:11;98385.63;;;5.88
76713;BMP280;65640;43.154;25.658;2023-11-25T12:12:40;98387.28;;;5.84
76713;BMP280;65640;43.154;25.658;2023-11-25T12:15:09;98379.00;;;5.82
76713;BMP280;65640;43.154;25.658;2023-11-25T12:17:34;98385.78;;;5.64
76713;BMP280;65640;43.154;25.658;2023-11-25T12:19:59;98382.81;;;5.57
76713;BMP280;65640;43.154;25.658;2023-11-25T12:22:25;98379.56;;;5.47
76713;BMP280;65640;43.154;25.658;2023-11-25T12:24:51;98370.91;;;5.37
76713;BMP280;65640;43.154;25.658;2023-11-25T12:27:16;98373.56;;;5.32
76713;BMP280;65640;43.154;25.658;2023-11-25T12:29:42;98368.50;;;5.22
76713;BMP280;65640;43.154;25.658;2023-11-25T12:32:08;98368.75;;;5.26
76713;BMP280;65640;43.154;25.658;2023-11-25T12:34:33;98369.94;;;5.15
76713;BMP280;65640;43.154;25.658;2023-11-25T12:36:58;98361.53;;;5.04
76713;BMP280;65640;43.154;25.658;2023-11-25T12:39:24;98349.53;;;5.08
76713;BMP280;65640;43.154;25.658;2023-11-25T12:41:50;98362.50;;;5.08
76713;BMP280;65640;43.154;25.658;2023-11-25T12:44:15;98360.69;;;5.09
76713;BMP280;65640;43.154;25.658;2023-11-25T12:46:41;98365.66;;;5.05
76713;BMP280;65640;43.154;25.658;2023-11-25T12:49:22;98379.66;;;5.04
76713;BMP280;65640;43.154;25.658;2023-11-25T12:51:49;98391.22;;;4.93
76713;BMP280;65640;43.154;25.658;2023-11-25T12:54:15;98398.34;;;4.82
76713;BMP280;65640;43.154;25.658;2023-11-25T12:56:42;98384.38;;;4.78
76713;BMP280;65640;43.154;25.658;2023-11-25T12:59:07;98378.53;;;4.73
76713;BMP280;65640;43.154;25.658;2023-11-25T13:01:32;98374.16;;;4.68
76713;BMP280;65640;43.154;25.658;2023-11-25T13:04:04;98373.94;;;4.64
76713;BMP280;65640;43.154;25.658;2023-11-25T13:06:30;98390.03;;;4.61
76713;BMP280;65640;43.154;25.658;2023-11-25T13:08:55;98387.94;;;4.63
76713;BMP280;65640;43.154;25.658;2023-11-25T13:11:20;98385.88;;;4.60
76713;BMP280;65640;43.154;25.658;2023-11-25T13:13:46;98402.44;;;4.64
76713;BMP280;65640;43.154;25.658;2023-11-25T13:16:11;98410.94;;;4.70
76713;BMP280;65640;43.154;25.658;2023-11-25T13:18:39;98416.88;;;4.71
76713;BMP280;65640;43.154;25.658;2023-11-25T13:21:10;98422.38;;;4.64
76713;BMP280;65640;43.154;25.658;2023-11-25T13:23:36;98413.94;;;4.53
76713;BMP280;65640;43.154;25.658;2023-11-25T13:26:02;98413.50;;;4.46
76713;BMP280;65640;43.154;25.658;2023-11-25T13:28:28;98414.59;;;4.40
76713;BMP280;65640;43.154;25.658;2023-11-25T13:30:53;98409.53;;;4.30
76713;BMP280;65640;43.154;25.658;2023-11-25T13:33:19;98404.34;;;4.30
76713;BMP280;65640;43.154;25.658;2023-11-25T13:35:44;98405.88;;;4.31
76713;BMP280;65640;43.154;25.658;2023-11-25T13:38:12;98403.19;;;4.41
76713;BMP280;65640;43.154;25.658;2023-11-25T13:40:38;98388.03;;;4.30
76713;BMP280;65640;43.154;25.658;2023-11-25T13:43:05;98381.34;;;4.29
76713;BMP280;65640;43.154;25.658;2023-11-25T13:45:30;98375.25;;;4.38
76713;BMP280;65640;43.154;25.658;2023-11-25T13:47:56;98359.19;;;4.41
76713;BMP280;65640;43.154;25.658;2023-11-25T13:50:22;98346.78;;;4.38
76713;BMP280;65640;43.154;25.658;2023-11-25T13:52:47;98338.97;;;4.43
76713;BMP280;65640;43.154;25.658;2023-11-25T13:55:13;98328.66;;;4.38
76713;BMP280;65640;43.154;25.658;2023-11-25T13:57:42;98335.81;;;4.46
76713;BMP280;65640;43.154;25.658;2023-11-25T14:00:08;98337.38;;;4.47
76713;BMP280;65640;43.154;25.658;2023-11-25T14:02:33;98332.63;;;4.54
76713;BMP280;65640;43.154;25.658;2023-11-25T14:05:01;98327.34;;;4.59
76713;BMP280;65640;43.154;25.658;2023-11-25T14:07:26;98318.22;;;4.67
76713;BMP280;65640;43.154;25.658;2023-11-25T14:09:51;98324.56;;;4.75
76713;BMP280;65640;43.154;25.658;2023-11-25T14:12:17;98336.03;;;4.74
76713;BMP280;65640;43.154;25.658;2023-11-25T14:14:42;98332.28;;;4.80
76713;BMP280;65640;43.154;25.658;2023-11-25T14:17:07;98336.38;;;4.86
76713;BMP280;65640;43.154;25.658;2023-11-25T14:19:36;98343.09;;;4.87